sensor_id;sensor_type;location;lat;lon;timestamp;temperature;humidity
29203;DHT22;16245;51.170;4.884;2023-03-05T00:01:19;6.70;99.90
29203;DHT22;16245;51.170;4.884;2023-03-05T00:03:47;6.70;99.90
29203;DHT22;16245;51.170;4.884;2023-03-05T00:06:13;6.60;99.90
29203;DHT22;16245;51.170;4.884;2023-03-05T00:08:39;6.70;99.90
29203;DHT22;16245;51.170;4.884;2023-03-05T00:11:10;6.80;99.90
29203;DHT22;16245;51.170;4.884;2023-03-05T00:13:36;6.60;99.90
29203;DHT22;16245;51.170;4.884;2023-03-05T00:16:08;6.60;99.90
29203;DHT22;16245;51.170;4.884;2023-03-05T00:18:34;6.50;99.90
29203;DHT22;16245;51.170;4.884;2023-03-05T00:21:00;6.50;99.90
29203;DHT22;16245;51.170;4.884;2023-03-05T00:23:26;6.50;99.90
29203;DHT22;16245;51.170;4.884;2023-03-05T00:25:52;6.50;99.90
29203;DHT22;16245;51.170;4.884;2023-03-05T00:28:18;6.40;99.90
29203;DHT22;16245;51.170;4.884;2023-03-05T00:30:44;6.50;99.90
29203;DHT22;16245;51.170;4.884;2023-03-05T00:33:11;6.50;99.90
29203;DHT22;16245;51.170;4.884;2023-03-05T00:35:42;6.40;99.90
29203;DHT22;16245;51.170;4.884;2023-03-05T00:38:09;6.40;99.90
29203;DHT22;16245;51.170;4.884;2023-03-05T00:40:39;6.40;99.90
29203;DHT22;16245;51.170;4.884;2023-03-05T00:43:05;6.40;99.90
29203;DHT22;16245;51.170;4.884;2023-03-05T00:45:31;6.40;99.90
29203;DHT22;16245;51.170;4.884;2023-03-05T00:47:57;6.40;99.90
29203;DHT22;16245;51.170;4.884;2023-03-05T00:50:26;6.40;99.90
29203;DHT22;16245;51.170;4.884;2023-03-05T00:52:52;6.50;99.90
29203;DHT22;16245;51.170;4.884;2023-03-05T00:55:18;6.50;99.90
29203;DHT22;16245;51.170;4.884;2023-03-05T00:57:44;6.40;99.90
29203;DHT22;16245;51.170;4.884;2023-03-05T01:00:11;6.50;99.90
29203;DHT22;16245;51.170;4.884;2023-03-05T01:02:37;6.50;99.90
29203;DHT22;16245;51.170;4.884;2023-03-05T01:05:03;6.40;99.90
29203;DHT22;16245;51.170;4.884;2023-03-05T01:07:29;6.40;99.90
29203;DHT22;16245;51.170;4.884;2023-03-05T01:09:54;6.40;99.90
29203;DHT22;16245;51.170;4.884;2023-03-05T01:12:20;6.30;99.90
29203;DHT22;16245;51.170;4.884;2023-03-05T01:14:46;6.30;99.90
29203;DHT22;16245;51.170;4.884;2023-03-05T01:17:11;6.40;99.90
29203;DHT22;16245;51.170;4.884;2023-03-05T01:19:37;6.40;99.90
29203;DHT22;16245;51.170;4.884;2023-03-05T01:22:03;6.50;99.90
29203;DHT22;16245;51.170;4.884;2023-03-05T01:24:32;6.40;99.90
29203;DHT22;16245;51.170;4.884;2023-03-05T01:26:58;6.30;99.90
29203;DHT22;16245;51.170;4.884;2023-03-05T01:29:23;6.30;99.90
29203;DHT22;16245;51.170;4.884;2023-03-05T01:31:49;6.30;99.90
29203;DHT22;16245;51.170;4.884;2023-03-05T01:34:15;6.30;99.90
29203;DHT22;16245;51.170;4.884;2023-03-05T01:36:42;6.20;99.90
29203;DHT22;16245;51.170;4.884;2023-03-05T01:39:08;6.20;99.90
29203;DHT22;16245;51.170;4.884;2023-03-05T01:41:34;6.20;99.90
29203;DHT22;16245;51.170;4.884;2023-03-05T01:44:00;6.20;99.90
29203;DHT22;16245;51.170;4.884;2023-03-05T01:46:33;6.20;99.90
29203;DHT22;16245;51.170;4.884;2023-03-05T01:49:27;6.20;99.90
29203;DHT22;16245;51.170;4.884;2023-03-05T01:51:56;6.10;99.90
29203;DHT22;16245;51.170;4.884;2023-03-05T01:54:36;6.20;99.90
29203;DHT22;16245;51.170;4.884;2023-03-05T01:57:13;6.20;99.90
29203;DHT22;16245;51.170;4.884;2023-03-05T01:59:41;6.20;99.90
29203;DHT22;16245;51.170;4.884;2023-03-05T02:02:08;6.30;99.90
29203;DHT22;16245;51.170;4.884;2023-03-05T02:04:45;6.20;99.90
29203;DHT22;16245;51.170;4.884;2023-03-05T02:07:13;6.30;99.90
29203;DHT22;16245;51.170;4.884;2023-03-05T02:09:39;6.30;99.90
29203;DHT22;16245;51.170;4.884;2023-03-05T02:12:05;6.30;99.90
29203;DHT22;16245;51.170;4.884;2023-03-05T02:14:32;6.30;99.90
29203;DHT22;16245;51.170;4.884;2023-03-05T02:16:58;6.20;99.90
29203;DHT22;16245;51.170;4.884;2023-03-05T02:19:24;6.30;99.90
29203;DHT22;16245;51.170;4.884;2023-03-05T02:21:49;6.20;99.90
29203;DHT22;16245;51.170;4.884;2023-03-05T02:24:34;6.20;99.90
29203;DHT22;16245;51.170;4.884;2023-03-05T02:27:00;6.10;99.90
29203;DHT22;16245;51.170;4.884;2023-03-05T02:29:28;6.20;99.90
29203;DHT22;16245;51.170;4.884;2023-03-05T02:31:54;6.20;99.90
29203;DHT22;16245;51.170;4.884;2023-03-05T02:34:22;6.30;99.90
29203;DHT22;16245;51.170;4.884;2023-03-05T02:36:48;6.20;99.90
29203;DHT22;16245;51.170;4.884;2023-03-05T02:39:15;6.20;99.90
29203;DHT22;16245;51.170;4.884;2023-03-05T02:41:41;6.00;99.90
29203;DHT22;16245;51.170;4.884;2023-03-05T02:44:07;6.00;99.90
29203;DHT22;16245;51.170;4.884;2023-03-05T02:46:33;6.00;99.90
29203;DHT22;16245;51.170;4.884;2023-03-05T02:48:59;6.00;99.90
29203;DHT22;16245;51.170;4.884;2023-03-05T02:51:25;5.90;99.90
29203;DHT22;16245;51.170;4.884;2023-03-05T02:53:50;6.00;99.90
29203;DHT22;16245;51.170;4.884;2023-03-05T02:56:16;6.00;99.90
29203;DHT22;16245;51.170;4.884;2023-03-05T02:58:42;6.00;99.90
29203;DHT22;16245;51.170;4.884;2023-03-05T03:01:08;6.00;99.90
29203;DHT22;16245;51.170;4.884;2023-03-05T03:03:35;6.10;99.90
29203;DHT22;16245;51.170;4.884;2023-03-05T03:06:01;6.10;99.90
29203;DHT22;16245;51.170;4.884;2023-03-05T03:08:27;6.00;99.90
29203;DHT22;16245;51.170;4.884;2023-03-05T03:10:53;5.80;99.90
29203;DHT22;16245;51.170;4.884;2023-03-05T03:13:22;5.80;99.90
29203;DHT22;16245;51.170;4.884;2023-03-05T03:15:48;5.80;99.90
29203;DHT22;16245;51.170;4.884;2023-03-05T03:18:13;5.80;99.90
29203;DHT22;16245;51.170;4.884;2023-03-05T03:20:39;5.80;99.90
29203;DHT22;16245;51.170;4.884;2023-03-05T03:23:05;5.80;99.90
29203;DHT22;16245;51.170;4.884;2023-03-05T03:25:31;5.90;99.90
29203;DHT22;16245;51.170;4.884;2023-03-05T03:27:57;5.80;99.90
29203;DHT22;16245;51.170;4.884;2023-03-05T03:30:23;5.90;99.90
29203;DHT22;16245;51.170;4.884;2023-03-05T03:32:50;5.90;99.90
29203;DHT22;16245;51.170;4.884;2023-03-05T03:35:16;5.80;99.90
29203;DHT22;16245;51.170;4.884;2023-03-05T03:37:42;5.70;99.90
29203;DHT22;16245;51.170;4.884;2023-03-05T03:40:08;5.80;99.90
29203;DHT22;16245;51.170;4.884;2023-03-05T03:42:34;5.70;99.90
29203;DHT22;16245;51.170;4.884;2023-03-05T03:45:00;5.70;99.90
29203;DHT22;16245;51.170;4.884;2023-03-05T03:47:27;5.70;99.90
29203;DHT22;16245;51.170;4.884;2023-03-05T03:49:54;5.70;99.90
29203;DHT22;16245;51.170;4.884;2023-03-05T03:52:20;5.70;99.90
29203;DHT22;16245;51.170;4.884;2023-03-05T03:54:48;5.80;99.90
29203;DHT22;16245;51.170;4.884;2023-03-05T03:57:14;5.80;99.90
29203;DHT22;16245;51.170;4.884;2023-03-05T03:59:39;5.80;99.90
29203;DHT22;16245;51.170;4.884;2023-03-05T04:02:05;5.80;99.90
29203;DHT22;16245;51.170;4.884;2023-03-05T04:04:31;5.80;99.90
29203;DHT22;16245;51.170;4.884;2023-03-05T04:06:57;5.80;99.90
29203;DHT22;16245;51.170;4.884;2023-03-05T04:09:23;5.80;99.90
29203;DHT22;16245;51.170;4.884;2023-03-05T04:11:48;5.70;99.90
29203;DHT22;16245;51.170;4.884;2023-03-05T04:14:14;5.80;99.90
29203;DHT22;16245;51.170;4.884;2023-03-05T04:16:40;5.80;99.90
29203;DHT22;16245;51.170;4.884;2023-03-05T04:19:05;5.90;99.90
29203;DHT22;16245;51.170;4.884;2023-03-05T04:21:31;5.90;99.90
29203;DHT22;16245;51.170;4.884;2023-03-05T04:23:57;5.90;99.90
29203;DHT22;16245;51.170;4.884;2023-03-05T04:26:22;5.90;99.90
29203;DHT22;16245;51.170;4.884;2023-03-05T04:28:48;5.80;99.90
29203;DHT22;16245;51.170;4.884;2023-03-05T04:31:14;5.70;99.90
29203;DHT22;16245;51.170;4.884;2023-03-05T04:33:40;5.80;99.90
29203;DHT22;16245;51.170;4.884;2023-03-05T04:36:06;5.80;99.90
29203;DHT22;16245;51.170;4.884;2023-03-05T04:38:31;5.70;99.90
29203;DHT22;16245;51.170;4.884;2023-03-05T04:40:57;5.80;99.90
29203;DHT22;16245;51.170;4.884;2023-03-05T04:43:23;5.70;99.90
29203;DHT22;16245;51.170;4.884;2023-03-05T04:45:48;5.90;99.90
29203;DHT22;16245;51.170;4.884;2023-03-05T04:48:14;5.80;99.90
29203;DHT22;16245;51.170;4.884;2023-03-05T04:50:41;5.80;99.90
29203;DHT22;16245;51.170;4.884;2023-03-05T04:53:07;6.00;99.90
29203;DHT22;16245;51.170;4.884;2023-03-05T04:55:33;5.80;99.90
29203;DHT22;16245;51.170;4.884;2023-03-05T04:57:58;5.70;99.90
29203;DHT22;16245;51.170;4.884;2023-03-05T05:00:24;5.60;99.90
29203;DHT22;16245;51.170;4.884;2023-03-05T05:02:51;5.60;99.90
29203;DHT22;16245;51.170;4.884;2023-03-05T05:05:22;5.70;99.90
29203;DHT22;16245;51.170;4.884;2023-03-05T05:07:48;5.80;99.90
29203;DHT22;16245;51.170;4.884;2023-03-05T05:10:15;5.90;99.90
29203;DHT22;16245;51.170;4.884;2023-03-05T05:12:40;5.90;99.90
29203;DHT22;16245;51.170;4.884;2023-03-05T05:15:07;6.00;99.90
29203;DHT22;16245;51.170;4.884;2023-03-05T05:17:33;6.20;99.90
29203;DHT22;16245;51.170;4.884;2023-03-05T05:20:00;6.10;99.90
29203;DHT22;16245;51.170;4.884;2023-03-05T05:22:27;6.00;99.90
29203;DHT22;16245;51.170;4.884;2023-03-05T05:24:53;5.90;99.90
29203;DHT22;16245;51.170;4.884;2023-03-05T05:27:19;5.90;99.90
29203;DHT22;16245;51.170;4.884;2023-03-05T05:29:45;5.90;99.90
29203;DHT22;16245;51.170;4.884;2023-03-05T05:32:15;5.80;99.90
29203;DHT22;16245;51.170;4.884;2023-03-05T05:34:41;5.80;99.90
29203;DHT22;16245;51.170;4.884;2023-03-05T05:37:06;5.80;99.90
29203;DHT22;16245;51.170;4.884;2023-03-05T05:39:32;5.90;99.90
29203;DHT22;16245;51.170;4.884;2023-03-05T05:41:58;5.80;99.90
29203;DHT22;16245;51.170;4.884;2023-03-05T05:44:23;5.80;99.90
29203;DHT22;16245;51.170;4.884;2023-03-05T05:46:49;5.70;99.90
29203;DHT22;16245;51.170;4.884;2023-03-05T05:49:14;5.70;99.90
29203;DHT22;16245;51.170;4.884;2023-03-05T05:51:41;5.80;99.90
29203;DHT22;16245;51.170;4.884;2023-03-05T05:54:06;5.80;99.90
29203;DHT22;16245;51.170;4.884;2023-03-05T05:56:32;5.80;99.90
29203;DHT22;16245;51.170;4.884;2023-03-05T05:58:58;5.70;99.90
29203;DHT22;16245;51.170;4.884;2023-03-05T06:01:27;5.70;99.90
29203;DHT22;16245;51.170;4.884;2023-03-05T06:03:54;5.80;99.90
29203;DHT22;16245;51.170;4.884;2023-03-05T06:06:21;5.60;99.90
29203;DHT22;16245;51.170;4.884;2023-03-05T06:08:48;5.60;99.90
29203;DHT22;16245;51.170;4.884;2023-03-05T06:11:15;5.70;99.90
29203;DHT22;16245;51.170;4.884;2023-03-05T06:13:41;5.70;99.90
29203;DHT22;16245;51.170;4.884;2023-03-05T06:16:12;5.50;99.90
29203;DHT22;16245;51.170;4.884;2023-03-05T06:18:38;5.30;99.90
29203;DHT22;16245;51.170;4.884;2023-03-05T06:21:07;5.30;99.90
29203;DHT22;16245;51.170;4.884;2023-03-05T06:23:34;5.40;99.90
29203;DHT22;16245;51.170;4.884;2023-03-05T06:26:02;5.50;99.90
29203;DHT22;16245;51.170;4.884;2023-03-05T06:28:28;5.60;99.90
29203;DHT22;16245;51.170;4.884;2023-03-05T06:31:06;5.60;99.90
29203;DHT22;16245;51.170;4.884;2023-03-05T06:33:33;5.70;99.90
29203;DHT22;16245;51.170;4.884;2023-03-05T06:36:01;5.70;99.90
29203;DHT22;16245;51.170;4.884;2023-03-05T06:38:27;5.60;99.90
29203;DHT22;16245;51.170;4.884;2023-03-05T06:40:52;5.60;99.90
29203;DHT22;16245;51.170;4.884;2023-03-05T06:43:18;5.50;99.90
29203;DHT22;16245;51.170;4.884;2023-03-05T06:45:44;5.40;99.90
29203;DHT22;16245;51.170;4.884;2023-03-05T06:48:10;5.30;99.90
29203;DHT22;16245;51.170;4.884;2023-03-05T06:50:37;5.30;99.90
29203;DHT22;16245;51.170;4.884;2023-03-05T06:53:03;5.40;99.90
29203;DHT22;16245;51.170;4.884;2023-03-05T06:55:29;5.50;99.90
29203;DHT22;16245;51.170;4.884;2023-03-05T06:57:55;5.40;99.90
29203;DHT22;16245;51.170;4.884;2023-03-05T07:00:21;5.40;99.90
29203;DHT22;16245;51.170;4.884;2023-03-05T07:02:47;5.50;99.90
29203;DHT22;16245;51.170;4.884;2023-03-05T07:05:12;5.50;99.90
29203;DHT22;16245;51.170;4.884;2023-03-05T07:07:38;5.60;99.90
29203;DHT22;16245;51.170;4.884;2023-03-05T07:10:04;5.60;99.90
29203;DHT22;16245;51.170;4.884;2023-03-05T07:12:33;5.60;99.90
29203;DHT22;16245;51.170;4.884;2023-03-05T07:14:59;5.70;99.90
29203;DHT22;16245;51.170;4.884;2023-03-05T07:17:26;5.80;99.90
29203;DHT22;16245;51.170;4.884;2023-03-05T07:19:51;5.80;99.90
29203;DHT22;16245;51.170;4.884;2023-03-05T07:22:17;5.70;99.90
29203;DHT22;16245;51.170;4.884;2023-03-05T07:24:43;5.70;99.90
29203;DHT22;16245;51.170;4.884;2023-03-05T07:27:08;5.90;99.90
29203;DHT22;16245;51.170;4.884;2023-03-05T07:29:34;5.90;99.90
29203;DHT22;16245;51.170;4.884;2023-03-05T07:32:00;5.80;99.90
29203;DHT22;16245;51.170;4.884;2023-03-05T07:34:25;5.90;99.90
29203;DHT22;16245;51.170;4.884;2023-03-05T07:36:51;5.80;99.90
29203;DHT22;16245;51.170;4.884;2023-03-05T07:39:17;5.90;99.90
29203;DHT22;16245;51.170;4.884;2023-03-05T07:41:44;5.90;99.90
29203;DHT22;16245;51.170;4.884;2023-03-05T07:44:10;6.00;99.90
29203;DHT22;16245;51.170;4.884;2023-03-05T07:46:37;6.00;99.90
29203;DHT22;16245;51.170;4.884;2023-03-05T07:49:03;6.10;99.90
29203;DHT22;16245;51.170;4.884;2023-03-05T07:51:29;6.10;99.90
29203;DHT22;16245;51.170;4.884;2023-03-05T07:53:56;6.20;99.90
29203;DHT22;16245;51.170;4.884;2023-03-05T07:56:25;6.20;99.90
29203;DHT22;16245;51.170;4.884;2023-03-05T07:58:52;6.30;99.90
29203;DHT22;16245;51.170;4.884;2023-03-05T08:01:17;6.30;99.90
29203;DHT22;16245;51.170;4.884;2023-03-05T08:03:43;6.30;99.90
29203;DHT22;16245;51.170;4.884;2023-03-05T08:06:10;6.30;99.90
29203;DHT22;16245;51.170;4.884;2023-03-05T08:08:37;6.40;99.90
29203;DHT22;16245;51.170;4.884;2023-03-05T08:11:11;6.50;99.90
29203;DHT22;16245;51.170;4.884;2023-03-05T08:13:38;6.50;99.90
29203;DHT22;16245;51.170;4.884;2023-03-05T08:16:12;6.40;99.90
29203;DHT22;16245;51.170;4.884;2023-03-05T08:18:38;6.40;99.90
29203;DHT22;16245;51.170;4.884;2023-03-05T08:21:04;6.50;99.90
29203;DHT22;16245;51.170;4.884;2023-03-05T08:23:30;6.50;99.90
29203;DHT22;16245;51.170;4.884;2023-03-05T08:25:56;6.60;99.90
29203;DHT22;16245;51.170;4.884;2023-03-05T08:28:22;6.90;99.90
29203;DHT22;16245;51.170;4.884;2023-03-05T08:30:48;6.90;99.90
29203;DHT22;16245;51.170;4.884;2023-03-05T08:33:14;6.90;99.90
29203;DHT22;16245;51.170;4.884;2023-03-05T08:35:42;7.00;99.90
29203;DHT22;16245;51.170;4.884;2023-03-05T08:38:08;7.10;99.90
29203;DHT22;16245;51.170;4.884;2023-03-05T08:40:34;7.00;99.90
29203;DHT22;16245;51.170;4.884;2023-03-05T08:42:59;7.00;99.90
29203;DHT22;16245;51.170;4.884;2023-03-05T08:45:26;7.10;99.90
29203;DHT22;16245;51.170;4.884;2023-03-05T08:47:53;7.00;99.90
29203;DHT22;16245;51.170;4.884;2023-03-05T08:50:20;6.90;99.90
29203;DHT22;16245;51.170;4.884;2023-03-05T08:52:48;7.00;99.90
29203;DHT22;16245;51.170;4.884;2023-03-05T08:55:13;7.20;99.90
29203;DHT22;16245;51.170;4.884;2023-03-05T08:57:39;7.30;99.90
29203;DHT22;16245;51.170;4.884;2023-03-05T09:00:05;7.40;99.90
29203;DHT22;16245;51.170;4.884;2023-03-05T09:02:32;7.50;99.90
29203;DHT22;16245;51.170;4.884;2023-03-05T09:04:58;7.50;99.90
29203;DHT22;16245;51.170;4.884;2023-03-05T09:07:23;7.40;99.90
29203;DHT22;16245;51.170;4.884;2023-03-05T09:09:49;7.50;99.90
29203;DHT22;16245;51.170;4.884;2023-03-05T09:12:14;7.60;99.90
29203;DHT22;16245;51.170;4.884;2023-03-05T09:14:40;7.50;99.90
29203;DHT22;16245;51.170;4.884;2023-03-05T09:17:07;7.50;99.90
29203;DHT22;16245;51.170;4.884;2023-03-05T09:19:32;7.50;99.90
29203;DHT22;16245;51.170;4.884;2023-03-05T09:21:58;7.60;99.90
29203;DHT22;16245;51.170;4.884;2023-03-05T09:24:24;7.70;99.90
29203;DHT22;16245;51.170;4.884;2023-03-05T09:26:50;7.70;99.90
29203;DHT22;16245;51.170;4.884;2023-03-05T09:29:16;7.70;99.90
29203;DHT22;16245;51.170;4.884;2023-03-05T09:31:42;7.80;99.90
29203;DHT22;16245;51.170;4.884;2023-03-05T09:34:10;7.90;99.90
29203;DHT22;16245;51.170;4.884;2023-03-05T09:36:35;8.00;99.90
29203;DHT22;16245;51.170;4.884;2023-03-05T09:39:02;8.10;99.90
29203;DHT22;16245;51.170;4.884;2023-03-05T09:47:21;8.50;99.90
29203;DHT22;16245;51.170;4.884;2023-03-05T09:50:03;8.30;99.90
29203;DHT22;16245;51.170;4.884;2023-03-05T09:52:44;8.40;99.90
29203;DHT22;16245;51.170;4.884;2023-03-05T09:55:24;8.40;99.90
29203;DHT22;16245;51.170;4.884;2023-03-05T09:58:03;8.30;99.90
29203;DHT22;16245;51.170;4.884;2023-03-05T10:03:18;8.20;99.90
29203;DHT22;16245;51.170;4.884;2023-03-05T10:08:21;8.30;99.90
29203;DHT22;16245;51.170;4.884;2023-03-05T10:10:51;8.30;99.90
29203;DHT22;16245;51.170;4.884;2023-03-05T10:13:37;8.30;99.90
29203;DHT22;16245;51.170;4.884;2023-03-05T10:19:08;8.40;99.90
29203;DHT22;16245;51.170;4.884;2023-03-05T10:27:07;8.80;99.90
29203;DHT22;16245;51.170;4.884;2023-03-05T10:38:24;8.80;99.90
29203;DHT22;16245;51.170;4.884;2023-03-05T10:40:57;9.50;99.90
29203;DHT22;16245;51.170;4.884;2023-03-05T10:43:49;10.00;99.90
29203;DHT22;16245;51.170;4.884;2023-03-05T10:46:18;9.90;99.90
29203;DHT22;16245;51.170;4.884;2023-03-05T10:48:54;9.90;99.90
29203;DHT22;16245;51.170;4.884;2023-03-05T10:52:24;9.70;99.90
29203;DHT22;16245;51.170;4.884;2023-03-05T10:54:32;9.60;99.90
29203;DHT22;16245;51.170;4.884;2023-03-05T10:57:20;9.50;99.90
29203;DHT22;16245;51.170;4.884;2023-03-05T10:59:57;9.50;99.90
29203;DHT22;16245;51.170;4.884;2023-03-05T11:02:25;9.20;99.90
29203;DHT22;16245;51.170;4.884;2023-03-05T11:04:52;9.10;99.90
29203;DHT22;16245;51.170;4.884;2023-03-05T11:12:30;7.80;99.90
29203;DHT22;16245;51.170;4.884;2023-03-05T11:15:22;7.30;99.90
29203;DHT22;16245;51.170;4.884;2023-03-05T11:18:17;7.00;99.90
29203;DHT22;16245;51.170;4.884;2023-03-05T11:20:43;6.80;99.90
29203;DHT22;16245;51.170;4.884;2023-03-05T11:23:17;6.70;99.90
29203;DHT22;16245;51.170;4.884;2023-03-05T11:28:37;6.90;99.90
29203;DHT22;16245;51.170;4.884;2023-03-05T11:31:07;6.90;99.90
29203;DHT22;16245;51.170;4.884;2023-03-05T11:39:09;7.20;99.90
29203;DHT22;16245;51.170;4.884;2023-03-05T11:44:13;7.30;99.90
29203;DHT22;16245;51.170;4.884;2023-03-05T11:46:47;7.40;99.90
29203;DHT22;16245;51.170;4.884;2023-03-05T11:49:20;7.70;99.90
29203;DHT22;16245;51.170;4.884;2023-03-05T11:51:59;8.00;99.90
29203;DHT22;16245;51.170;4.884;2023-03-05T11:54:35;8.20;99.90
29203;DHT22;16245;51.170;4.884;2023-03-05T11:57:05;8.30;99.90
29203;DHT22;16245;51.170;4.884;2023-03-05T11:59:34;8.50;99.90
29203;DHT22;16245;51.170;4.884;2023-03-05T12:02:00;8.60;99.90
29203;DHT22;16245;51.170;4.884;2023-03-05T12:04:26;8.90;99.90
29203;DHT22;16245;51.170;4.884;2023-03-05T12:07:00;9.10;99.90
29203;DHT22;16245;51.170;4.884;2023-03-05T12:09:43;9.30;99.90
29203;DHT22;16245;51.170;4.884;2023-03-05T12:20:52;9.00;99.90
29203;DHT22;16245;51.170;4.884;2023-03-05T12:23:20;8.90;99.90
29203;DHT22;16245;51.170;4.884;2023-03-05T12:25:47;8.90;99.90
29203;DHT22;16245;51.170;4.884;2023-03-05T12:33:38;9.00;99.90
29203;DHT22;16245;51.170;4.884;2023-03-05T12:38:55;9.00;99.90
29203;DHT22;16245;51.170;4.884;2023-03-05T12:46:42;9.00;99.90
29203;DHT22;16245;51.170;4.884;2023-03-05T12:51:51;9.00;99.90
29203;DHT22;16245;51.170;4.884;2023-03-05T12:54:33;8.90;99.90
29203;DHT22;16245;51.170;4.884;2023-03-05T12:57:02;8.80;99.90
29203;DHT22;16245;51.170;4.884;2023-03-05T12:59:49;8.70;99.90
29203;DHT22;16245;51.170;4.884;2023-03-05T13:02:42;8.90;99.90
29203;DHT22;16245;51.170;4.884;2023-03-05T13:05:33;9.00;99.90
29203;DHT22;16245;51.170;4.884;2023-03-05T13:08:21;9.00;99.90
29203;DHT22;16245;51.170;4.884;2023-03-05T13:10:52;9.20;99.90
29203;DHT22;16245;51.170;4.884;2023-03-05T13:13:19;9.20;99.90
29203;DHT22;16245;51.170;4.884;2023-03-05T13:15:49;9.10;99.90
29203;DHT22;16245;51.170;4.884;2023-03-05T13:18:23;9.00;99.90
29203;DHT22;16245;51.170;4.884;2023-03-05T13:21:03;8.90;99.90
29203;DHT22;16245;51.170;4.884;2023-03-05T13:23:30;8.80;99.90
29203;DHT22;16245;51.170;4.884;2023-03-05T13:26:10;8.70;99.90
29203;DHT22;16245;51.170;4.884;2023-03-05T13:28:37;8.90;99.90
29203;DHT22;16245;51.170;4.884;2023-03-05T13:31:19;8.80;99.90
29203;DHT22;16245;51.170;4.884;2023-03-05T13:33:52;8.70;99.90
29203;DHT22;16245;51.170;4.884;2023-03-05T13:36:21;8.60;99.90
29203;DHT22;16245;51.170;4.884;2023-03-05T13:38:48;8.50;99.90
29203;DHT22;16245;51.170;4.884;2023-03-05T13:43:44;8.40;99.90
29203;DHT22;16245;51.170;4.884;2023-03-05T13:46:10;8.40;99.90
29203;DHT22;16245;51.170;4.884;2023-03-05T13:48:35;8.30;99.90
29203;DHT22;16245;51.170;4.884;2023-03-05T13:51:01;8.30;99.90
29203;DHT22;16245;51.170;4.884;2023-03-05T13:53:31;8.30;99.90
29203;DHT22;16245;51.170;4.884;2023-03-05T13:56:00;8.30;99.90
29203;DHT22;16245;51.170;4.884;2023-03-05T14:03:49;8.30;99.90
29203;DHT22;16245;51.170;4.884;2023-03-05T14:06:18;8.30;99.90
29203;DHT22;16245;51.170;4.884;2023-03-05T14:08:54;8.30;99.90
29203;DHT22;16245;51.170;4.884;2023-03-05T14:11:24;8.30;99.90
29203;DHT22;16245;51.170;4.884;2023-03-05T14:13:59;8.30;99.90
29203;DHT22;16245;51.170;4.884;2023-03-05T14:16:26;8.20;99.90
29203;DHT22;16245;51.170;4.884;2023-03-05T14:19:02;8.20;99.90
29203;DHT22;16245;51.170;4.884;2023-03-05T14:21:49;8.20;99.90
29203;DHT22;16245;51.170;4.884;2023-03-05T14:24:33;8.00;99.90
29203;DHT22;16245;51.170;4.884;2023-03-05T14:27:14;7.90;99.90
29203;DHT22;16245;51.170;4.884;2023-03-05T14:29:45;7.80;99.90
29203;DHT22;16245;51.170;4.884;2023-03-05T14:32:27;7.80;99.90
29203;DHT22;16245;51.170;4.884;2023-03-05T14:34:57;7.80;99.90
29203;DHT22;16245;51.170;4.884;2023-03-05T14:37:34;7.80;99.90
29203;DHT22;16245;51.170;4.884;2023-03-05T14:40:06;7.90;99.90
29203;DHT22;16245;51.170;4.884;2023-03-05T14:42:34;7.90;99.90
29203;DHT22;16245;51.170;4.884;2023-03-05T14:45:15;8.00;99.90
29203;DHT22;16245;51.170;4.884;2023-03-05T14:47:41;8.10;99.90
29203;DHT22;16245;51.170;4.884;2023-03-05T14:50:27;8.10;99.90
29203;DHT22;16245;51.170;4.884;2023-03-05T14:52:59;8.20;99.90
29203;DHT22;16245;51.170;4.884;2023-03-05T14:55:28;8.20;99.90
29203;DHT22;16245;51.170;4.884;2023-03-05T14:58:18;8.20;99.90
29203;DHT22;16245;51.170;4.884;2023-03-05T15:00:46;8.20;99.90
29203;DHT22;16245;51.170;4.884;2023-03-05T15:03:14;8.20;99.90
29203;DHT22;16245;51.170;4.884;2023-03-05T15:05:41;8.10;99.90
29203;DHT22;16245;51.170;4.884;2023-03-05T15:08:33;8.20;99.90
29203;DHT22;16245;51.170;4.884;2023-03-05T15:11:00;8.30;99.90
29203;DHT22;16245;51.170;4.884;2023-03-05T15:13:25;8.20;99.90
29203;DHT22;16245;51.170;4.884;2023-03-05T15:15:52;8.30;99.90
29203;DHT22;16245;51.170;4.884;2023-03-05T15:18:20;8.20;99.90
29203;DHT22;16245;51.170;4.884;2023-03-05T15:20:46;8.20;99.90
29203;DHT22;16245;51.170;4.884;2023-03-05T15:23:13;8.30;99.90
29203;DHT22;16245;51.170;4.884;2023-03-05T15:25:39;8.30;99.90
29203;DHT22;16245;51.170;4.884;2023-03-05T15:28:06;8.10;99.90
29203;DHT22;16245;51.170;4.884;2023-03-05T15:30:34;8.20;99.90
29203;DHT22;16245;51.170;4.884;2023-03-05T15:33:11;8.10;99.90
29203;DHT22;16245;51.170;4.884;2023-03-05T15:35:37;8.00;99.90
29203;DHT22;16245;51.170;4.884;2023-03-05T15:38:03;7.90;99.90
29203;DHT22;16245;51.170;4.884;2023-03-05T15:40:29;7.90;99.90
29203;DHT22;16245;51.170;4.884;2023-03-05T15:42:56;7.90;99.90
29203;DHT22;16245;51.170;4.884;2023-03-05T15:45:22;7.90;99.90
29203;DHT22;16245;51.170;4.884;2023-03-05T15:47:49;7.80;99.90
29203;DHT22;16245;51.170;4.884;2023-03-05T15:50:15;7.70;99.90
29203;DHT22;16245;51.170;4.884;2023-03-05T15:52:41;7.80;99.90
29203;DHT22;16245;51.170;4.884;2023-03-05T15:55:07;7.80;99.90
29203;DHT22;16245;51.170;4.884;2023-03-05T15:57:35;7.80;99.90
29203;DHT22;16245;51.170;4.884;2023-03-05T16:00:04;8.00;99.90
29203;DHT22;16245;51.170;4.884;2023-03-05T16:02:30;7.80;99.90
29203;DHT22;16245;51.170;4.884;2023-03-05T16:04:56;7.80;99.90
29203;DHT22;16245;51.170;4.884;2023-03-05T16:07:22;7.70;99.90
29203;DHT22;16245;51.170;4.884;2023-03-05T16:09:48;7.70;99.90
29203;DHT22;16245;51.170;4.884;2023-03-05T16:12:21;7.60;99.90
29203;DHT22;16245;51.170;4.884;2023-03-05T16:14:49;7.60;99.90
29203;DHT22;16245;51.170;4.884;2023-03-05T16:17:16;7.40;99.90
29203;DHT22;16245;51.170;4.884;2023-03-05T16:19:45;7.40;99.90
29203;DHT22;16245;51.170;4.884;2023-03-05T16:22:12;7.40;99.90
29203;DHT22;16245;51.170;4.884;2023-03-05T16:24:38;7.40;99.90
29203;DHT22;16245;51.170;4.884;2023-03-05T16:27:03;7.20;99.90
29203;DHT22;16245;51.170;4.884;2023-03-05T16:29:30;7.00;99.90
29203;DHT22;16245;51.170;4.884;2023-03-05T16:31:57;6.70;99.90
29203;DHT22;16245;51.170;4.884;2023-03-05T16:34:23;6.50;99.90
29203;DHT22;16245;51.170;4.884;2023-03-05T16:36:50;6.50;99.90
29203;DHT22;16245;51.170;4.884;2023-03-05T16:39:20;6.40;99.90
29203;DHT22;16245;51.170;4.884;2023-03-05T16:41:46;6.40;99.90
29203;DHT22;16245;51.170;4.884;2023-03-05T16:44:12;6.30;99.90
29203;DHT22;16245;51.170;4.884;2023-03-05T16:46:38;6.40;99.90
29203;DHT22;16245;51.170;4.884;2023-03-05T16:49:05;6.40;99.90
29203;DHT22;16245;51.170;4.884;2023-03-05T16:51:33;6.40;99.90
29203;DHT22;16245;51.170;4.884;2023-03-05T16:53:59;6.50;99.90
29203;DHT22;16245;51.170;4.884;2023-03-05T16:56:24;6.50;99.90
29203;DHT22;16245;51.170;4.884;2023-03-05T16:58:52;6.40;99.90
29203;DHT22;16245;51.170;4.884;2023-03-05T17:01:19;6.40;99.90
29203;DHT22;16245;51.170;4.884;2023-03-05T17:03:47;6.50;99.90
29203;DHT22;16245;51.170;4.884;2023-03-05T17:06:22;6.40;99.90
29203;DHT22;16245;51.170;4.884;2023-03-05T17:08:49;6.40;99.90
29203;DHT22;16245;51.170;4.884;2023-03-05T17:11:15;6.30;99.90